Time;durP1;ratioP1;P1;durP2;ratioP2;P2;SDS_P1;SDS_P2;PMS_P1;PMS_P2;Temp;Humidity;BMP_temperature;BMP_pressure;BME280_temperature;BME280_humidity;BME280_pressure;Samples;Min_cycle;Max_cycle;Signal;HPM_P1;HPM_P2
2021/12/21 00:00:32;;;;;;;20.52;11.38;;;;;;;;;;5094411;28;20131;-70
2021/12/21 00:02:58;;;;;;;19.42;10.85;;;;;;;;;;5098485;28;20047;-71
2021/12/21 00:05:28;;;;;;;18.55;10.75;;;;;;;;;;5077781;28;20590;-71
2021/12/21 00:07:55;;;;;;;17.58;10.38;;;;;;;;;;5101094;28;20534;-70
2021/12/21 00:10:24;;;;;;;18.30;9.98;;;0.40;99.90;;;;;;5112955;28;20046;-70
2021/12/21 00:15:34;;;;;;;24.67;10.70;;;0.40;99.90;;;;;;5111021;28;20087;-71
2021/12/21 00:18:07;;;;;;;22.95;10.68;;;;;;;;;;5105458;28;20097;-70
2021/12/21 00:20:53;;;;;;;18.27;9.88;;;;;;;;;;5091761;28;20037;-70
2021/12/21 00:25:54;;;;;;;17.23;10.35;;;;;;;;;;5107595;28;20059;-70
2021/12/21 00:28:20;;;;;;;15.55;9.52;;;;;;;;;;5093746;28;20028;-70
2021/12/21 00:30:46;;;;;;;21.48;9.45;;;;;;;;;;5095634;28;20039;-70
2021/12/21 00:33:12;;;;;;;20.35;10.45;;;;;;;;;;5112285;28;20451;-70
2021/12/21 00:35:38;;;;;;;16.00;9.77;;;;;;;;;;5102715;28;20035;-70
2021/12/21 00:38:05;;;;;;;17.30;10.25;;;;;;;;;;5111815;28;20176;-70
2021/12/21 00:40:31;;;;;;;17.92;10.10;;;0.30;99.90;;;;;;5112149;28;20365;-70
2021/12/21 00:42:58;;;;;;;15.98;8.70;;;;;;;;;;5077193;28;20396;-70
2021/12/21 00:45:24;;;;;;;16.40;8.75;;;;;;;;;;5105341;28;20031;-70
2021/12/21 00:47:51;;;;;;;17.80;10.05;;;;;;;;;;5095692;28;20151;-70
2021/12/21 00:50:18;;;;;;;17.17;8.57;;;0.30;99.90;;;;;;5101310;28;20032;-70
2021/12/21 00:52:49;;;;;;;16.20;8.20;;;0.20;99.90;;;;;;5097199;28;20043;-71
2021/12/21 00:55:15;;;;;;;14.30;8.15;;;;;;;;;;5094726;28;20058;-70
2021/12/21 00:57:41;;;;;;;22.02;9.32;;;;;;;;;;5101473;28;20044;-70
2021/12/21 01:00:09;;;;;;;17.60;9.23;;;0.20;99.90;;;;;;5093114;28;20463;-70
2021/12/21 01:02:35;;;;;;;19.60;9.05;;;;;;;;;;5104713;28;20510;-70
2021/12/21 01:05:02;;;;;;;16.92;8.32;;;;;;;;;;5093585;28;20048;-70
2021/12/21 01:07:36;;;;;;;17.45;8.38;;;;;;;;;;5101162;28;20115;-70
2021/12/21 01:12:56;;;;;;;17.73;8.48;;;;;;;;;;5102085;28;20047;-70
2021/12/21 01:15:58;;;;;;;16.67;7.95;;;;;;;;;;5108150;28;20552;-70
2021/12/21 01:18:32;;;;;;;13.85;7.85;;;;;;;;;;5095084;28;20036;-70
2021/12/21 01:21:07;;;;;;;11.43;7.00;;;;;;;;;;5092799;28;20044;-70
2021/12/21 01:24:02;;;;;;;15.65;7.72;;;;;;;;;;5108626;28;20430;-70
2021/12/21 01:27:00;;;;;;;13.00;7.32;;;;;;;;;;5110503;28;20040;-70
2021/12/21 01:31:56;;;;;;;15.38;7.57;;;;;;;;;;5108873;28;20437;-70
2021/12/21 01:37:02;;;;;;;12.68;6.50;;;;;;;;;;5095253;28;20104;-72
2021/12/21 01:42:13;;;;;;;10.30;6.55;;;;;;;;;;5094854;28;20050;-70
2021/12/21 01:49:34;;;;;;;9.68;6.57;;;;;;;;;;5110829;28;20039;-70
2021/12/21 01:50:10;;;;;;;16.35;7.35;;;;;;;;;;5092534;28;20510;-70
2021/12/21 01:52:36;;;;;;;15.00;6.95;;;;;;;;;;5085113;28;20490;-70
2021/12/21 01:55:02;;;;;;;18.38;7.22;;;;;;;;;;5094005;28;20126;-70
2021/12/21 01:57:28;;;;;;;14.00;6.60;;;;;;;;;;5106188;28;20055;-70
2021/12/21 01:59:54;;;;;;;13.00;6.03;;;;;;;;;;5110477;28;20051;-70
2021/12/21 02:02:21;;;;;;;13.05;6.57;;;0.00;99.90;;;;;;5096815;28;20043;-70
2021/12/21 02:04:47;;;;;;;11.07;6.32;;;;;;;;;;5098824;28;20047;-70
2021/12/21 02:07:13;;;;;;;12.52;6.20;;;;;;;;;;5093338;28;20071;-70
2021/12/21 02:09:40;;;;;;;18.90;6.88;;;-0.20;99.90;;;;;;5092645;28;20468;-70
2021/12/21 02:12:08;;;;;;;11.63;6.32;;;-0.10;99.90;;;;;;5092094;28;20118;-70
2021/12/21 02:14:35;;;;;;;10.20;6.07;;;-0.30;99.90;;;;;;5113695;28;20043;-70
2021/12/21 02:17:29;;;;;;;11.85;6.50;;;-0.10;99.90;;;;;;5096476;28;20050;-70
2021/12/21 02:22:55;;;;;;;14.18;6.40;;;;;;;;;;5107617;28;20377;-70
2021/12/21 02:30:50;;;;;;;16.83;6.45;;;-0.10;99.90;;;;;;5068138;28;20058;-70
2021/12/21 02:33:16;;;;;;;10.93;5.85;;;;;;;;;;5101586;28;20419;-70
2021/12/21 02:35:42;;;;;;;12.55;6.63;;;-0.30;99.90;;;;;;5114064;28;20053;-70
2021/12/21 02:38:09;;;;;;;18.17;6.90;;;-0.40;99.90;;;;;;5099587;28;20079;-70
2021/12/21 02:40:36;;;;;;;14.57;6.90;;;-0.40;99.90;;;;;;5097620;28;20040;-70
2021/12/21 02:43:03;;;;;;;15.45;7.10;;;;;;;;;;5078984;28;20105;-70
2021/12/21 02:45:29;;;;;;;14.18;7.10;;;;;;;;;;5096274;28;20371;-70
2021/12/21 02:47:55;;;;;;;9.65;6.72;;;;;;;;;;5081983;28;20563;-70
2021/12/21 02:50:21;;;;;;;8.05;5.90;;;;;;;;;;5096422;28;20036;-70
2021/12/21 02:52:47;;;;;;;14.80;6.72;;;;;;;;;;5095881;28;20048;-70
2021/12/21 02:55:14;;;;;;;10.93;6.05;;;;;;;;;;5108401;28;20092;-70
2021/12/21 02:57:40;;;;;;;12.18;6.55;;;;;;;;;;5096714;28;20045;-70
2021/12/21 03:00:08;;;;;;;9.45;6.10;;;-0.60;99.90;;;;;;5111184;28;20039;-70
2021/12/21 03:02:34;;;;;;;12.70;5.88;;;;;;;;;;5077867;28;20415;-70
2021/12/21 03:05:00;;;;;;;10.90;5.60;;;;;;;;;;5108550;28;20445;-70
2021/12/21 03:07:58;;;;;;;11.52;6.38;;;;;;;;;;5111277;28;20131;-70
2021/12/21 03:10:15;;;;;;;10.48;6.05;;;;;;;;;;5096355;28;20119;-70
2021/12/21 03:15:30;;;;;;;12.18;6.68;;;;;;;;;;5097585;28;20411;-70
2021/12/21 03:17:57;;;;;;;9.23;6.10;;;0.10;99.90;;;;;;5083394;28;20032;-70
2021/12/21 03:20:24;;;;;;;13.70;6.70;;;-0.40;99.90;;;;;;5110377;28;20036;-70
2021/12/21 03:22:51;;;;;;;13.80;6.10;;;-0.60;99.90;;;;;;5079254;28;20047;-70
2021/12/21 03:25:17;;;;;;;10.57;6.30;;;;;;;;;;5094146;28;20443;-70
2021/12/21 03:27:43;;;;;;;10.73;6.10;;;0.00;99.90;;;;;;5100624;28;20036;-70
2021/12/21 03:30:12;;;;;;;13.32;6.47;;;-0.50;99.90;;;;;;5107115;28;20502;-70
2021/12/21 03:32:38;;;;;;;11.55;6.10;;;;;;;;;;5113389;28;20043;-70
2021/12/21 03:35:05;;;;;;;10.95;5.70;;;;;;;;;;5100998;28;20058;-70
2021/12/21 03:37:31;;;;;;;12.20;6.05;;;;;;;;;;5096052;28;20036;-70
2021/12/21 03:40:00;;;;;;;16.08;6.20;;;;;;;;;;5103543;28;20040;-71
2021/12/21 03:42:26;;;;;;;14.68;6.82;;;;;;;;;;5111587;28;20395;-72
2021/12/21 03:44:52;;;;;;;11.23;6.00;;;;;;;;;;5096869;28;20350;-70
2021/12/21 03:47:18;;;;;;;9.95;6.15;;;;;;;;;;5110284;28;20054;-70
2021/12/21 03:52:14;;;;;;;15.02;6.72;;;-0.50;99.90;;;;;;5095991;28;20092;-70
2021/12/21 03:54:41;;;;;;;13.48;6.63;;;;;;;;;;5100013;28;20495;-72
2021/12/21 03:57:07;;;;;;;13.55;6.60;;;-0.50;99.90;;;;;;5094609;28;20031;-71
2021/12/21 03:59:33;;;;;;;14.02;6.55;;;-0.60;99.90;;;;;;5098104;28;20126;-70
2021/12/21 04:01:59;;;;;;;14.43;6.75;;;;;;;;;;5111847;28;20046;-70
2021/12/21 04:04:25;;;;;;;15.82;6.70;;;-0.30;99.90;;;;;;5111566;28;20102;-70
2021/12/21 04:06:52;;;;;;;12.32;6.35;;;;;;;;;;5112320;28;20498;-70
2021/12/21 04:09:18;;;;;;;14.75;6.47;;;;;;;;;;5111708;28;20036;-70
2021/12/21 04:11:44;;;;;;;10.02;6.03;;;;;;;;;;5100054;28;20042;-70
2021/12/21 04:14:10;;;;;;;11.90;6.53;;;;;;;;;;5094564;28;20526;-70
2021/12/21 04:16:36;;;;;;;14.48;6.95;;;;;;;;;;5095721;28;20116;-70
2021/12/21 04:19:03;;;;;;;11.18;6.53;;;-0.80;99.90;;;;;;5094248;28;20036;-70
2021/12/21 04:21:29;;;;;;;12.38;6.63;;;;;;;;;;5101777;28;20077;-70
2021/12/21 04:23:55;;;;;;;10.48;6.18;;;;;;;;;;5097643;28;20407;-70
2021/12/21 04:26:21;;;;;;;14.15;7.25;;;;;;;;;;5091027;28;20123;-70
2021/12/21 04:28:48;;;;;;;9.85;6.03;;;;;;;;;;5112239;28;20040;-70
2021/12/21 04:31:14;;;;;;;9.43;6.15;;;;;;;;;;5109724;28;20039;-70
2021/12/21 04:33:42;;;;;;;11.32;6.35;;;-1.00;99.90;;;;;;5079675;28;20348;-70
2021/12/21 04:36:09;;;;;;;9.18;5.20;;;-0.90;99.90;;;;;;5099386;28;20031;-70
2021/12/21 04:38:39;;;;;;;12.35;6.00;;;;;;;;;;5076768;28;20040;-70
2021/12/21 04:41:26;;;;;;;10.55;6.07;;;-0.80;99.90;;;;;;5105908;28;20085;-71
2021/12/21 04:43:53;;;;;;;11.93;6.50;;;-0.70;99.90;;;;;;5112289;28;20050;-71
2021/12/21 04:46:19;;;;;;;12.93;6.30;;;;;;;;;;5099758;28;20388;-70
2021/12/21 04:48:45;;;;;;;13.82;6.60;;;;;;;;;;5093462;28;20491;-70
2021/12/21 04:51:12;;;;;;;9.05;6.30;;;;;;;;;;5104959;28;20043;-70
2021/12/21 04:53:38;;;;;;;14.75;6.65;;;;;;;;;;5111797;28;20479;-70
2021/12/21 04:56:04;;;;;;;14.80;6.40;;;-0.90;99.90;;;;;;5085350;28;20036;-70
2021/12/21 04:58:30;;;;;;;21.52;6.63;;;;;;;;;;5093328;28;20035;-72
2021/12/21 05:00:56;;;;;;;11.55;6.30;;;;;;;;;;5103232;28;20036;-72
2021/12/21 05:03:24;;;;;;;16.13;6.80;;;;;;;;;;5093057;28;20040;-71
2021/12/21 05:05:50;;;;;;;15.82;7.47;;;;;;;;;;5099048;28;20109;-71
2021/12/21 05:08:25;;;;;;;10.85;6.07;;;;;;;;;;5106326;28;20044;-71
2021/12/21 05:11:00;;;;;;;12.00;6.82;;;-0.90;99.90;;;;;;5104981;28;20040;-71
2021/12/21 05:13:28;;;;;;;12.27;6.60;;;-0.80;99.90;;;;;;5108890;28;20039;-70
2021/12/21 05:15:55;;;;;;;14.88;6.82;;;;;;;;;;5105165;28;20123;-70
2021/12/21 05:18:21;;;;;;;9.77;6.68;;;-0.90;99.90;;;;;;5099407;28;20110;-71
2021/12/21 05:20:47;;;;;;;13.25;6.80;;;;;;;;;;5097852;28;20089;-70
2021/12/21 05:23:14;;;;;;;11.20;6.15;;;-1.00;99.90;;;;;;5102911;28;20124;-70
2021/12/21 05:25:40;;;;;;;17.08;6.78;;;;;;;;;;5095956;28;20058;-71
2021/12/21 05:28:09;;;;;;;12.02;6.88;;;-1.10;99.90;;;;;;5108203;28;20040;-71
2021/12/21 05:30:36;;;;;;;13.68;7.10;;;-1.00;99.90;;;;;;5095112;28;20075;-71
2021/12/21 05:33:03;;;;;;;15.85;7.28;;;-1.00;99.90;;;;;;5092665;28;20119;-71
2021/12/21 05:35:29;;;;;;;14.25;7.55;;;;;;;;;;5093418;28;20036;-71
2021/12/21 05:38:02;;;;;;;18.08;7.82;;;;;;;;;;5088976;28;20126;-71
2021/12/21 05:40:38;;;;;;;16.48;7.75;;;-1.00;99.90;;;;;;5107379;28;20395;-71
2021/12/21 05:43:05;;;;;;;13.00;7.45;;;;;;;;;;5092539;28;20126;-71
2021/12/21 05:45:32;;;;;;;17.23;8.38;;;;;;;;;;5091200;28;20509;-71
2021/12/21 05:47:58;;;;;;;19.40;8.15;;;;;;;;;;5104526;28;20032;-71
2021/12/21 05:50:24;;;;;;;19.50;8.95;;;;;;;;;;5076764;28;20070;-71
2021/12/21 05:52:50;;;;;;;12.63;7.70;;;;;;;;;;5100094;28;20062;-72
2021/12/21 05:55:17;;;;;;;16.65;8.52;;;-1.10;99.90;;;;;;5092493;28;20499;-73
2021/12/21 05:57:44;;;;;;;16.10;7.07;;;-1.20;99.90;;;;;;5107469;28;20054;-73
2021/12/21 06:00:14;;;;;;;17.52;8.48;;;-1.30;99.90;;;;;;5092230;28;20156;-73
2021/12/21 06:02:40;;;;;;;13.85;8.10;;;;;;;;;;5098437;28;20044;-71
2021/12/21 06:05:07;;;;;;;16.23;8.98;;;;;;;;;;5092300;28;20484;-71
2021/12/21 06:07:33;;;;;;;15.82;8.10;;;;;;;;;;5099613;28;20044;-71
2021/12/21 06:10:08;;;;;;;15.80;9.07;;;-1.00;99.90;;;;;;5092519;28;20036;-71
2021/12/21 06:26:04;;;;;;;18.05;9.68;;;;;;;;;;5070597;28;20393;-73
2021/12/21 06:28:31;;;;;;;15.13;9.52;;;;;;;;;;5070742;28;20039;-72
2021/12/21 06:30:57;;;;;;;21.15;10.02;;;;;;;;;;5069748;28;20036;-72
2021/12/21 06:33:23;;;;;;;22.95;9.75;;;;;;;;;;5068631;28;20094;-72
2021/12/21 06:35:49;;;;;;;19.98;9.88;;;-0.70;99.90;;;;;;5066652;28;20374;-70
2021/12/21 06:38:15;;;;;;;22.73;10.20;;;;;;;;;;5070170;28;20089;-70
2021/12/21 06:40:42;;;;;;;15.75;8.80;;;;;;;;;;5070511;28;20040;-70
2021/12/21 06:43:12;;;;;;;17.30;9.63;;;;;;;;;;5070304;28;20043;-70
2021/12/21 06:53:36;;;;;;;20.65;10.25;;;-0.90;99.90;;;;;;5069983;28;20040;-70
2021/12/21 06:56:09;;;;;;;18.27;10.30;;;-1.10;99.90;;;;;;5070615;28;20111;-70
2021/12/21 06:58:35;;;;;;;18.75;10.77;;;;;;;;;;5070762;28;20036;-70
2021/12/21 07:01:02;;;;;;;22.80;11.40;;;;;;;;;;5057555;28;20493;-70
2021/12/21 07:03:29;;;;;;;21.90;11.63;;;;;;;;;;5073956;28;20489;-70
2021/12/21 07:05:55;;;;;;;23.50;11.02;;;;;;;;;;5073314;28;20044;-70
2021/12/21 07:08:26;;;;;;;21.55;10.90;;;;;;;;;;5074001;28;20032;-70
2021/12/21 07:11:01;;;;;;;17.92;10.35;;;;;;;;;;5057494;28;20123;-70
2021/12/21 07:18:56;;;;;;;21.77;10.63;;;;;;;;;;5074043;28;20529;-70
2021/12/21 07:21:22;;;;;;;19.15;11.10;;;;;;;;;;5057024;28;20074;-70
2021/12/21 07:23:51;;;;;;;21.05;11.15;;;;;;;;;;5080773;28;20043;-70
2021/12/21 07:26:17;;;;;;;24.60;11.00;;;-1.30;99.90;;;;;;5109475;28;20063;-70
2021/12/21 07:28:43;;;;;;;17.52;10.52;;;;;;;;;;5112674;28;20043;-69
2021/12/21 07:31:10;;;;;;;19.70;10.18;;;;;;;;;;5113550;28;20039;-72
2021/12/21 07:33:38;;;;;;;19.65;10.00;;;;;;;;;;5097260;28;20396;-72
2021/12/21 07:36:04;;;;;;;23.63;10.43;;;;;;;;;;5079207;28;20363;-70
2021/12/21 07:38:32;;;;;;;15.55;10.48;;;;;;;;;;5109804;28;20135;-70
2021/12/21 07:40:58;;;;;;;16.88;10.07;;;;;;;;;;5095204;28;20073;-69
2021/12/21 07:43:25;;;;;;;23.30;10.77;;;;;;;;;;5099475;28;20071;-71
2021/12/21 07:45:51;;;;;;;22.00;9.73;;;-1.20;99.90;;;;;;5101320;28;20035;-72
2021/12/21 07:48:18;;;;;;;24.42;10.90;;;;;;;;;;5101644;28;20031;-72
2021/12/21 07:50:46;;;;;;;20.98;10.32;;;-1.50;99.90;;;;;;5113187;28;20464;-72
2021/12/21 07:53:16;;;;;;;18.23;10.40;;;-1.20;99.90;;;;;;5084796;28;20032;-72
2021/12/21 07:55:42;;;;;;;19.90;9.98;;;;;;;;;;5104554;28;20036;-70
2021/12/21 07:58:09;;;;;;;21.00;11.63;;;;;;;;;;5107800;28;20036;-70
2021/12/21 08:00:35;;;;;;;23.27;10.90;;;;;;;;;;5110690;28;20073;-70
2021/12/21 08:03:01;;;;;;;21.73;11.43;;;-1.60;99.90;;;;;;5102427;28;20472;-70
2021/12/21 08:05:31;;;;;;;26.38;12.10;;;-2.10;99.90;;;;;;5076536;28;20044;-70
2021/12/21 08:08:08;;;;;;;27.02;12.48;;;-1.70;99.90;;;;;;5108648;28;20066;-70
2021/12/21 08:13:33;;;;;;;19.75;12.10;;;;;;;;;;5068034;28;20572;-70
2021/12/21 08:15:59;;;;;;;22.70;12.57;;;;;;;;;;5095369;28;20071;-70
2021/12/21 08:18:25;;;;;;;21.58;12.63;;;;;;;;;;5103970;28;20027;-70
2021/12/21 08:20:52;;;;;;;26.85;13.63;;;;;;;;;;5101423;28;20032;-70
2021/12/21 08:23:18;;;;;;;29.65;12.88;;;;;;;;;;5099222;28;20092;-70
2021/12/21 08:25:44;;;;;;;20.08;12.15;;;;;;;;;;5100849;28;20126;-70
2021/12/21 08:28:11;;;;;;;24.98;12.40;;;;;;;;;;5088574;28;20466;-70
2021/12/21 08:30:37;;;;;;;18.83;12.13;;;;;;;;;;5112016;28;20541;-68
2021/12/21 08:33:03;;;;;;;21.80;11.98;;;;;;;;;;5111053;28;20043;-70
2021/12/21 08:35:30;;;;;;;22.55;12.88;;;-1.30;99.90;;;;;;5095259;28;20043;-70
2021/12/21 08:38:07;;;;;;;18.33;11.90;;;;;;;;;;5110651;28;20135;-70
2021/12/21 08:40:39;;;;;;;23.67;12.38;;;-1.10;99.90;;;;;;5101783;28;20131;-70
2021/12/21 08:43:16;;;;;;;28.98;14.20;;;;;;;;;;5098397;28;20118;-70
2021/12/21 08:45:45;;;;;;;27.75;14.52;;;-1.00;99.90;;;;;;5102626;28;20522;-70
2021/12/21 08:48:12;;;;;;;26.30;13.75;;;-1.10;99.90;;;;;;5102406;28;20495;-70
2021/12/21 08:50:38;;;;;;;30.73;13.63;;;-1.10;99.90;;;;;;5102573;28;20036;-70
2021/12/21 08:53:05;;;;;;;27.88;14.13;;;;;;;;;;5105478;28;20039;-70
2021/12/21 08:55:31;;;;;;;21.73;13.18;;;;;;;;;;5085209;28;20431;-68
2021/12/21 08:57:57;;;;;;;22.05;13.20;;;;;;;;;;5094132;28;20036;-68
2021/12/21 09:00:23;;;;;;;25.30;13.00;;;;;;;;;;5100000;28;20491;-72
2021/12/21 09:02:50;;;;;;;20.73;12.25;;;;;;;;;;5083206;28;20058;-70
2021/12/21 09:05:19;;;;;;;29.65;14.02;;;;;;;;;;5103104;28;20039;-72
2021/12/21 09:07:47;;;;;;;22.63;13.35;;;-0.80;99.90;;;;;;5109676;28;20390;-72
2021/12/21 09:10:15;;;;;;;19.88;12.82;;;-0.70;99.90;;;;;;5098668;28;20047;-70
2021/12/21 09:12:41;;;;;;;19.52;12.95;;;;;;;;;;5103919;28;20040;-72
2021/12/21 09:15:09;;;;;;;21.42;13.93;;;-0.50;99.90;;;;;;5108389;27;20043;-71
2021/12/21 09:17:36;;;;;;;34.47;14.60;;;;;;;;;;5115472;27;20119;-70
2021/12/21 09:20:03;;;;;;;26.50;13.80;;;-0.60;99.90;;;;;;5096547;28;20040;-71
2021/12/21 09:22:29;;;;;;;31.10;15.40;;;;;;;;;;5112751;28;20040;-71
2021/12/21 09:24:57;;;;;;;22.88;13.75;;;-0.40;99.90;;;;;;5107510;28;20113;-68
2021/12/21 09:27:24;;;;;;;24.30;13.85;;;;;;;;;;5089656;28;20122;-70
2021/12/21 09:29:50;;;;;;;22.25;14.18;;;;;;;;;;5099561;28;20426;-68
2021/12/21 09:32:18;;;;;;;30.00;14.35;;;;;;;;;;5097864;28;20036;-68
2021/12/21 09:34:45;;;;;;;22.98;14.70;;;-0.10;99.90;;;;;;5108040;28;20123;-70
2021/12/21 09:37:15;;;;;;;30.92;14.80;;;;;;;;;;5099898;28;20036;-70
2021/12/21 09:39:43;;;;;;;27.42;15.07;;;0.30;99.90;;;;;;5094474;28;20046;-69
2021/12/21 09:42:11;;;;;;;30.75;15.20;;;0.20;99.90;;;;;;5092428;28;20052;-69
2021/12/21 09:44:38;;;;;;;31.05;15.60;;;;;;;;;;5092378;28;20118;-69
2021/12/21 09:47:06;;;;;;;25.23;14.45;;;0.70;99.90;;;;;;5092414;28;20078;-69
2021/12/21 09:49:32;;;;;;;32.35;14.52;;;;;;;;;;5075972;28;20051;-71
2021/12/21 09:51:58;;;;;;;30.48;15.40;;;;;;;;;;5092420;28;20505;-69
2021/12/21 09:54:25;;;;;;;28.00;15.48;;;0.30;99.90;;;;;;5092462;28;20050;-69
2021/12/21 09:56:51;;;;;;;28.25;15.30;;;;;;;;;;5092701;28;20167;-69
2021/12/21 09:59:17;;;;;;;30.17;15.60;;;;;;;;;;5092347;28;20096;-69
2021/12/21 10:01:43;;;;;;;33.42;16.05;;;;;;;;;;5075597;28;20084;-69
2021/12/21 10:04:09;;;;;;;28.30;15.27;;;;;;;;;;5092518;28;20376;-69
2021/12/21 10:06:47;;;;;;;30.55;15.68;;;0.60;99.90;;;;;;5075694;28;20072;-69
2021/12/21 10:09:14;;;;;;;30.80;16.38;;;0.60;99.90;;;;;;5092501;28;20433;-69
2021/12/21 10:11:45;;;;;;;34.35;15.30;;;0.70;99.90;;;;;;5092120;28;20036;-69
2021/12/21 10:14:11;;;;;;;28.55;15.13;;;0.80;99.90;;;;;;5092102;28;20051;-69
2021/12/21 10:16:37;;;;;;;19.60;14.15;;;;;;;;;;5092142;28;20036;-69
2021/12/21 10:19:06;;;;;;;31.77;16.48;;;0.90;99.90;;;;;;5075322;28;20170;-69
2021/12/21 10:21:32;;;;;;;25.17;15.10;;;;;;;;;;5075263;28;20055;-69
2021/12/21 10:23:58;;;;;;;29.15;17.48;;;;;;;;;;5091955;28;20056;-69
2021/12/21 10:26:26;;;;;;;33.40;15.32;;;;;;;;;;5092296;28;20170;-71
2021/12/21 10:29:00;;;;;;;32.50;15.85;;;0.70;99.90;;;;;;5092014;28;20089;-68
2021/12/21 10:31:26;;;;;;;25.50;14.80;;;;;;;;;;5092317;28;20392;-69
2021/12/21 10:33:52;;;;;;;30.63;16.30;;;;;;;;;;5076253;28;20090;-68
2021/12/21 10:36:18;;;;;;;32.47;15.23;;;;;;;;;;5095951;28;20046;-68
2021/12/21 10:38:52;;;;;;;27.92;15.40;;;1.30;99.90;;;;;;5096034;28;20055;-68
2021/12/21 10:41:33;;;;;;;25.48;14.73;;;1.50;99.90;;;;;;5096154;28;20044;-68
2021/12/21 10:44:04;;;;;;;31.92;13.70;;;;;;;;;;5079291;28;20048;-68
2021/12/21 10:46:31;;;;;;;30.80;14.55;;;1.60;99.90;;;;;;5095799;28;20070;-68
2021/12/21 10:49:13;;;;;;;30.00;15.63;;;;;;;;;;5079340;28;20047;-68
2021/12/21 10:52:07;;;;;;;30.95;15.80;;;1.80;99.90;;;;;;5095853;28;20036;-68
2021/12/21 10:54:33;;;;;;;25.70;13.50;;;;;;;;;;5095686;28;20534;-68
2021/12/21 10:57:04;;;;;;;28.60;14.20;;;2.00;99.90;;;;;;5085274;28;20032;-68
2021/12/21 10:59:35;;;;;;;24.02;12.82;;;2.10;99.90;;;;;;5104014;27;20624;-68
2021/12/21 11:02:15;;;;;;;30.70;14.48;;;;;;;;;;5104841;28;20036;-68
2021/12/21 11:04:48;;;;;;;24.42;13.45;;;2.30;99.90;;;;;;5095721;28;20491;-68
2021/12/21 11:09:58;;;;;;;27.88;13.27;;;2.50;99.90;;;;;;5095588;28;19923;-68
2021/12/21 11:12:26;;;;;;;24.42;13.98;;;;;;;;;;5095408;28;20062;-68
2021/12/21 11:14:54;;;;;;;25.48;12.95;;;2.80;99.90;;;;;;5095180;28;20079;-68
2021/12/21 11:17:21;;;;;;;28.00;13.65;;;2.60;99.90;;;;;;5095287;27;20051;-68
2021/12/21 11:19:48;;;;;;;21.05;12.90;;;;;;;;;;5095086;28;20048;-68
2021/12/21 11:22:14;;;;;;;19.40;11.65;;;;;;;;;;5094973;28;20048;-68
2021/12/21 11:24:40;;;;;;;23.77;11.50;;;;;;;;;;5078265;28;20135;-68
2021/12/21 11:27:06;;;;;;;25.05;11.15;;;;;;;;;;5094894;28;20050;-68
2021/12/21 11:29:35;;;;;;;26.63;11.68;;;3.10;99.90;;;;;;5078339;27;20032;-68
2021/12/21 11:32:03;;;;;;;23.02;10.35;;;3.30;99.90;;;;;;5095184;28;20048;-68
2021/12/21 11:34:34;;;;;;;18.50;10.52;;;3.00;99.90;;;;;;5094888;28;20075;-68
2021/12/21 11:39:45;;;;;;;18.45;10.30;;;;;;;;;;5094541;28;20048;-68
2021/12/21 11:42:42;;;;;;;18.30;9.55;;;3.70;99.90;;;;;;5077766;28;20086;-68
2021/12/21 11:45:22;;;;;;;20.98;8.88;;;;;;;;;;5077750;28;20028;-69
2021/12/21 11:48:10;;;;;;;22.15;9.05;;;3.80;99.90;;;;;;5077803;28;20036;-68
2021/12/21 11:50:39;;;;;;;18.27;9.10;;;4.10;99.90;;;;;;5077991;28;20040;-69
2021/12/21 11:53:12;;;;;;;16.55;8.55;;;4.30;99.90;;;;;;5083119;28;20036;-69
2021/12/21 11:55:45;;;;;;;23.20;8.40;;;4.20;99.90;;;;;;5094292;28;20127;-68
2021/12/21 11:58:22;;;;;;;17.55;7.70;;;5.60;99.90;;;;;;5077826;28;20039;-69
2021/12/21 12:00:57;;;;;;;18.85;7.80;;;4.40;99.90;;;;;;5077744;28;20032;-69
2021/12/21 12:03:29;;;;;;;15.13;7.25;;;4.30;99.90;;;;;;5077397;28;20044;-69
2021/12/21 12:06:00;;;;;;;17.45;7.13;;;4.80;99.90;;;;;;5094241;28;20492;-69
2021/12/21 12:08:40;;;;;;;12.40;6.88;;;4.30;99.90;;;;;;5094237;28;20130;-69
2021/12/21 12:11:07;;;;;;;18.30;7.07;;;4.50;99.90;;;;;;5077401;28;20051;-69
2021/12/21 12:13:43;;;;;;;15.35;6.82;;;4.50;99.90;;;;;;5094596;27;20044;-68
2021/12/21 12:16:13;;;;;;;16.50;7.28;;;;;;;;;;5104013;28;20118;-69
2021/12/21 12:18:44;;;;;;;13.68;6.40;;;4.40;99.90;;;;;;5077486;28;20036;-69
2021/12/21 12:21:15;;;;;;;16.63;6.30;;;;;;;;;;5095880;28;20036;-68
2021/12/21 12:23:47;;;;;;;12.50;6.50;;;;;;;;;;5076976;27;20040;-68
2021/12/21 12:26:21;;;;;;;19.13;6.90;;;;;;;;;;5083264;28;20534;-68
2021/12/21 12:28:47;;;;;;;11.63;6.25;;;;;;;;;;5100342;28;20354;-68
2021/12/21 12:31:26;;;;;;;15.57;6.00;;;;;;;;;;5099359;28;20124;-69
2021/12/21 12:33:52;;;;;;;12.57;5.10;;;;;;;;;;5096675;28;20043;-69
2021/12/21 12:36:18;;;;;;;11.55;5.20;;;;;;;;;;5094193;27;20042;-69
2021/12/21 12:38:44;;;;;;;11.32;6.13;;;4.50;99.90;;;;;;5102181;27;20035;-69
2021/12/21 12:41:13;;;;;;;17.75;6.10;;;4.60;99.90;;;;;;5104325;28;20495;-68
2021/12/21 12:43:44;;;;;;;13.20;6.30;;;4.40;99.90;;;;;;5103076;28;20039;-71
2021/12/21 12:46:12;;;;;;;15.85;6.35;;;;;;;;;;5108231;28;20042;-69
2021/12/21 12:48:38;;;;;;;13.20;6.15;;;;;;;;;;5093305;28;20492;-69
2021/12/21 12:51:06;;;;;;;12.00;5.75;;;4.70;99.90;;;;;;5095197;28;20062;-69
2021/12/21 12:53:40;;;;;;;11.38;5.88;;;;;;;;;;5106539;28;20031;-69
2021/12/21 12:56:07;;;;;;;15.95;5.72;;;;;;;;;;5094182;28;20524;-69
2021/12/21 12:58:35;;;;;;;16.83;5.90;;;5.00;99.90;;;;;;5092986;27;20438;-69
2021/12/21 13:01:11;;;;;;;12.63;5.47;;;4.90;99.90;;;;;;5093132;28;20126;-69
2021/12/21 13:03:40;;;;;;;14.45;6.28;;;;;;;;;;5094167;28;20074;-69
2021/12/21 13:06:16;;;;;;;14.65;6.00;;;5.10;99.90;;;;;;5108821;27;20488;-69
2021/12/21 13:08:42;;;;;;;14.80;5.80;;;5.50;99.90;;;;;;5105821;28;20032;-69
2021/12/21 13:11:09;;;;;;;14.70;5.93;;;;;;;;;;5092786;28;20032;-69
2021/12/21 13:13:38;;;;;;;16.33;6.43;;;;;;;;;;5093866;28;20044;-69
2021/12/21 13:16:08;;;;;;;11.68;5.30;;;5.80;99.90;;;;;;5092854;28;20052;-69
2021/12/21 13:19:03;;;;;;;13.98;5.82;;;5.90;99.90;;;;;;5106293;28;20032;-69
2021/12/21 13:21:29;;;;;;;15.25;5.80;;;;;;;;;;5093694;28;20044;-69
2021/12/21 13:24:18;;;;;;;12.18;5.60;;;6.00;99.90;;;;;;5095972;27;20063;-70
2021/12/21 13:26:50;;;;;;;11.20;5.57;;;;;;;;;;5094989;28;20036;-69
2021/12/21 13:29:18;;;;;;;11.48;5.22;;;;;;;;;;5101655;28;20047;-69
2021/12/21 13:31:47;;;;;;;12.05;5.57;;;6.00;99.90;;;;;;5075942;28;20071;-69
2021/12/21 13:34:14;;;;;;;12.45;6.28;;;6.00;99.90;;;;;;5092742;28;20114;-69
2021/12/21 13:36:47;;;;;;;15.00;5.82;;;6.10;99.90;;;;;;5093487;28;20032;-69
2021/12/21 13:39:27;;;;;;;16.63;6.28;;;6.10;99.90;;;;;;5092306;28;20036;-69
2021/12/21 13:41:58;;;;;;;11.88;5.60;;;6.10;99.90;;;;;;5093548;28;20073;-69
2021/12/21 13:44:25;;;;;;;15.88;6.03;;;6.00;99.90;;;;;;5092486;28;20048;-69
2021/12/21 13:46:51;;;;;;;14.85;7.40;;;6.20;99.90;;;;;;5093549;28;20123;-69
2021/12/21 13:49:18;;;;;;;14.68;6.28;;;;;;;;;;5102663;28;20040;-69
2021/12/21 13:52:02;;;;;;;15.43;6.05;;;6.30;99.90;;;;;;5092203;28;20056;-69
2021/12/21 13:54:29;;;;;;;12.13;5.72;;;;;;;;;;5099825;28;20039;-69
2021/12/21 13:56:55;;;;;;;15.45;5.75;;;;;;;;;;5093304;28;20554;-69
2021/12/21 13:59:22;;;;;;;18.50;6.00;;;;;;;;;;5092225;28;20071;-69
2021/12/21 14:01:53;;;;;;;13.90;5.88;;;6.30;99.90;;;;;;5091852;28;20069;-69
2021/12/21 14:04:27;;;;;;;16.55;6.60;;;;;;;;;;5092272;28;20074;-69
2021/12/21 14:06:54;;;;;;;11.60;5.78;;;6.10;99.90;;;;;;5100457;28;20044;-69
2021/12/21 14:09:22;;;;;;;17.50;6.47;;;6.30;99.90;;;;;;5102749;28;20028;-69
2021/12/21 14:11:53;;;;;;;11.60;5.60;;;;;;;;;;5091071;28;20036;-69
2021/12/21 14:14:19;;;;;;;12.02;5.78;;;;;;;;;;5111158;28;20031;-71
2021/12/21 14:16:46;;;;;;;12.07;6.28;;;;;;;;;;5111536;28;20035;-69
2021/12/21 14:19:16;;;;;;;11.93;5.78;;;6.00;99.90;;;;;;5094641;28;20066;-69
2021/12/21 14:21:42;;;;;;;14.60;6.25;;;;;;;;;;5092189;28;20412;-69
2021/12/21 14:24:15;;;;;;;16.45;6.28;;;5.80;99.90;;;;;;5108006;28;20044;-69
2021/12/21 14:26:52;;;;;;;15.00;5.72;;;;;;;;;;5112154;28;20487;-69
2021/12/21 14:29:22;;;;;;;16.02;6.18;;;;;;;;;;5098613;28;20142;-69
2021/12/21 14:34:26;;;;;;;17.65;5.90;;;5.00;99.90;;;;;;5096056;28;20492;-69
2021/12/21 14:36:52;;;;;;;12.00;5.65;;;;;;;;;;5092218;28;20044;-69
2021/12/21 14:39:19;;;;;;;12.10;5.78;;;5.00;99.90;;;;;;5106830;28;20043;-69
2021/12/21 14:41:48;;;;;;;12.30;6.20;;;;;;;;;;5106836;28;20078;-69
2021/12/21 14:44:16;;;;;;;12.30;6.43;;;4.80;99.90;;;;;;5105363;28;20050;-69
2021/12/21 14:46:53;;;;;;;20.42;7.13;;;4.70;99.90;;;;;;5112101;28;20043;-69
2021/12/21 14:49:27;;;;;;;15.35;6.38;;;4.60;99.90;;;;;;5098155;28;20070;-69
2021/12/21 14:51:57;;;;;;;13.07;6.15;;;4.20;99.90;;;;;;5091693;28;20043;-69
2021/12/21 14:54:26;;;;;;;15.25;6.13;;;;;;;;;;5105168;28;20118;-69
2021/12/21 14:57:00;;;;;;;14.65;6.53;;;5.10;99.90;;;;;;5112097;28;20617;-69
2021/12/21 14:59:34;;;;;;;19.10;6.13;;;4.20;99.90;;;;;;5098568;28;20089;-69